Airport View

Enter AWOS ICAO identifier for current METAR.

ex. KFNL

KOUN 191235Z AUTO 32012G18KT 10SM CLR 15/10 A2985 RMK AO2 T01460102

19 May 2019 12:51

Frequency: 119.55

Phone: 405-325-7302

Other Area AWOS: KOKC - KTIK - KPWA - KRCE

TAF KOUN 191123Z 1912/2012 33010KT P6SM FEW250 FM192100 10007KT P6SM FEW050